Aérodrome :







RETROUVEZ-NOUS SUR...

 
LOGIN :

S'inscrire | Disclaimer

   EN    FR    IT 

 









Légende :    VFR   VFR Marginal   IFR   IFR Intensif   IFR Très Intensif
Visi : 
Plafond : 
>= 8 km
>= 3000ft
5 à 8 km
1000 à 3000 ft
1500m à 5 km
500 à 1000 ft
800 à 1500m
200 à 500 ft
< 800m
< 200 ft
Symboles :   Orages  Brouillard  Fortes neiges  Fortes précipitations  Vent > 20 kt






- Altitude de l'aérodrome : 118 ft
- Code IATA : YUL


CYUL - Montréal - Pierre-Elliott-Trudeau Int.

DERNIER METAR :
  • 040300Z 02014KT 15SM SCT060 BKN090 06/01 A3004 RMK SC4AC1 SLP174

METARs EXPIRÉS :
  • 040200Z 02014G19KT 15SM FEW057 FEW090 FEW140 06/02 A3003 RMK SC1AC1AC1 SC TR AC TR SLP172
  • 040100Z 04014G19KT 15SM FEW060 BKN090 BKN140 07/02 A3002 RMK SC2AC3AC1 SLP170

TAF TAF CYUL
Valide du 04 à 03h jusqu'au 05 à 00h UTC


040238Z 0403/0424 03010G20KT P6SM BKN050
FM040600 03012KT P6SM FEW020 BKN040
TEMPO 0406/0409 BKN020 BKN040
FM040900 03010KT P6SM SCT012 BKN030
TEMPO 0409/0414 6SM -DZ BR BKN012 OVC030
PROB30 0409/0414 5SM -DZ BR BKN008 OVC030
FM041400 03008KT P6SM BKN012 OVC025
FM042100 06006KT P6SM BKN020 RMK NXT FCST BY 040600Z
ATIS : ENG : +1 514-633-3037 FRA : +1 514-633-3034



MET'MAP, la Météo Aéronautique d'un coup d'oeil ! - Copyright ORBIFLY Décembre 2007 - Disclaimer

ORBIFLY MET'MAP TEAM :

Programmation & Développement : Alexandra Zaïnal
Sur une idée originale de : Baudouin d'Aumeries
Assistance à la programmation : Marc-Olivier Méhu
Soutien technique & logistique : Manuel Goepfert

Contact : metmap@orbifly.com




SOURCES & CREDITS :

   NOAA